createdAt,value
2023-04-21T00:00:10.877Z,60.28
2023-04-21T00:02:58.146Z,60.66
2023-04-21T00:05:25.891Z,60.72
2023-04-21T00:07:52.976Z,60.48
2023-04-21T00:10:21.849Z,60.53
2023-04-21T00:12:48.917Z,60.21
2023-04-21T00:15:16.142Z,60.47
2023-04-21T00:17:43.537Z,60.37
2023-04-21T00:20:11.782Z,60.03
2023-04-21T00:22:38.889Z,60.56
2023-04-21T00:25:07.177Z,60.33
2023-04-21T00:27:35.607Z,60.58
2023-04-21T00:30:02.912Z,60.46
2023-04-21T00:32:29.938Z,60.26
2023-04-21T00:34:57.266Z,60.08
2023-04-21T00:37:24.301Z,60.74
2023-04-21T00:39:51.652Z,59.99
2023-04-21T00:42:19.124Z,59.70
2023-04-21T00:44:47.687Z,59.45
2023-04-21T00:47:14.697Z,59.45
2023-04-21T00:49:42.075Z,59.67
2023-04-21T00:52:09.137Z,59.74
2023-04-21T00:54:36.745Z,59.99
2023-04-21T00:57:04.460Z,59.71
2023-04-21T00:59:31.714Z,59.98
2023-04-21T01:02:00.125Z,59.91
2023-04-21T01:04:28.271Z,60.20
2023-04-21T01:06:55.880Z,60.07
2023-04-21T01:09:23.284Z,60.02
2023-04-21T01:12:04.054Z,59.96
2023-04-21T01:14:32.241Z,60.15
2023-04-21T01:17:00.567Z,59.79
2023-04-21T01:19:31.419Z,59.63
2023-04-21T01:22:00.875Z,59.86
2023-04-21T01:24:36.491Z,59.89
2023-04-21T01:27:03.534Z,59.71
2023-04-21T01:29:33.292Z,59.66
2023-04-21T01:32:06.009Z,59.13
2023-04-21T01:34:33.393Z,59.10
2023-04-21T01:37:02.044Z,58.93
2023-04-21T01:39:29.862Z,58.74
2023-04-21T01:41:57.953Z,58.80
2023-04-21T01:44:25.912Z,58.88
2023-04-21T01:46:53.159Z,58.79
2023-04-21T01:49:20.713Z,58.44
2023-04-21T01:51:47.887Z,58.68
2023-04-21T01:54:16.491Z,58.79
2023-04-21T01:56:43.640Z,58.62
2023-04-21T01:59:11.201Z,58.44
2023-04-21T02:01:38.225Z,58.33
2023-04-21T02:04:06.148Z,58.38
2023-04-21T02:06:33.315Z,58.33
2023-04-21T02:09:00.617Z,58.48
2023-04-21T02:11:29.344Z,58.18
2023-04-21T02:13:56.475Z,58.34
2023-04-21T02:16:27.060Z,58.26
2023-04-21T02:18:54.789Z,57.99
2023-04-21T02:21:21.883Z,58.05
2023-04-21T02:23:49.540Z,57.90
2023-04-21T02:26:16.854Z,58.11
2023-04-21T02:28:45.600Z,58.54
2023-04-21T02:31:12.700Z,58.85
2023-04-21T02:33:40.026Z,58.70
2023-04-21T02:36:07.791Z,58.43
2023-04-21T02:38:35.073Z,58.73
2023-04-21T02:41:01.996Z,58.16
2023-04-21T02:43:29.522Z,58.45
2023-04-21T02:45:58.587Z,58.44
2023-04-21T02:48:26.859Z,58.41
2023-04-21T02:50:53.844Z,58.72
2023-04-21T02:53:26.313Z,58.69
2023-04-21T02:55:53.223Z,58.89
2023-04-21T02:58:20.576Z,58.61
2023-04-21T03:00:47.505Z,58.51
2023-04-21T03:03:17.094Z,58.52
2023-04-21T03:05:44.166Z,58.31
2023-04-21T03:08:11.496Z,58.36
2023-04-21T03:10:38.794Z,58.53
2023-04-21T03:13:06.033Z,58.67
2023-04-21T03:15:33.125Z,58.54
2023-04-21T03:18:00.476Z,58.75
2023-04-21T03:20:28.876Z,59.04
2023-04-21T03:22:56.183Z,59.38
2023-04-21T03:25:23.366Z,59.29
2023-04-21T03:27:50.575Z,59.55
2023-04-21T03:30:17.650Z,59.71
2023-04-21T03:32:45.364Z,59.67
2023-04-21T03:35:12.362Z,59.33
2023-04-21T03:37:41.048Z,59.82
2023-04-21T03:40:08.983Z,59.50
2023-04-21T03:42:36.600Z,58.78
2023-04-21T03:45:04.987Z,59.00
2023-04-21T03:47:32.451Z,59.32
2023-04-21T03:49:59.652Z,58.99
2023-04-21T03:52:27.066Z,58.76
2023-04-21T03:54:55.367Z,58.73
2023-04-21T03:57:22.511Z,58.56
2023-04-21T03:59:49.524Z,58.66
2023-04-21T04:02:16.844Z,58.65
2023-04-21T04:04:44.034Z,58.91
2023-04-21T04:07:11.340Z,58.68
2023-04-21T04:09:38.259Z,58.85
2023-04-21T04:12:07.216Z,58.80
2023-04-21T04:14:34.194Z,58.63
2023-04-21T04:17:01.509Z,58.31
2023-04-21T04:19:31.367Z,58.29
2023-04-21T04:21:59.627Z,57.89
2023-04-21T04:24:26.817Z,58.15
2023-04-21T04:26:55.019Z,58.28
2023-04-21T04:29:23.417Z,57.73
2023-04-21T04:31:51.022Z,56.30
2023-04-21T04:34:18.639Z,54.20
2023-04-21T04:36:46.014Z,51.61
2023-04-21T04:39:13.017Z,50.55
2023-04-21T04:41:41.419Z,49.85
2023-04-21T04:44:08.989Z,47.83
2023-04-21T04:46:37.685Z,45.58
2023-04-21T04:49:04.986Z,43.61
2023-04-21T04:51:32.681Z,41.98
2023-04-21T04:53:59.737Z,40.85
2023-04-21T04:56:26.958Z,39.50
2023-04-21T04:58:53.997Z,37.72
2023-04-21T05:01:21.601Z,37.25
2023-04-21T05:03:50.182Z,36.40
2023-04-21T05:06:17.469Z,34.71
2023-04-21T05:08:44.503Z,34.16
2023-04-21T05:11:12.543Z,32.97
2023-04-21T05:13:40.199Z,31.81
2023-04-21T05:16:09.758Z,32.30
2023-04-21T05:18:36.773Z,31.26
2023-04-21T05:21:05.787Z,30.63
2023-04-21T05:23:32.690Z,29.50
2023-04-21T05:26:01.986Z,31.12
2023-04-21T05:28:31.967Z,29.71
2023-04-21T05:30:59.351Z,29.43
2023-04-21T05:33:27.033Z,30.15
2023-04-21T05:35:54.441Z,31.31
2023-04-21T05:38:22.829Z,32.40
2023-04-21T05:40:52.948Z,32.92
2023-04-21T05:43:20.221Z,34.04
2023-04-21T05:45:47.417Z,34.65
2023-04-21T05:48:14.363Z,34.60
2023-04-21T05:50:41.639Z,35.57
2023-04-21T05:53:08.584Z,36.57
2023-04-21T05:55:37.725Z,36.86
2023-04-21T05:58:05.390Z,36.91
2023-04-21T06:00:32.970Z,37.61
2023-04-21T06:03:00.160Z,37.43
2023-04-21T06:05:27.596Z,37.43
2023-04-21T06:07:54.704Z,37.78
2023-04-21T06:10:22.050Z,37.30
2023-04-21T06:13:06.769Z,37.13
2023-04-21T06:15:34.155Z,37.28
2023-04-21T06:18:01.362Z,37.57
2023-04-21T06:20:28.761Z,37.49
2023-04-21T06:22:55.988Z,37.65
2023-04-21T06:25:23.504Z,36.69
2023-04-21T06:27:50.583Z,36.97
2023-04-21T06:30:19.477Z,37.37
2023-04-21T06:32:47.791Z,37.27
2023-04-21T06:35:15.463Z,37.41
2023-04-21T06:37:42.601Z,36.94
2023-04-21T06:40:12.408Z,36.75
2023-04-21T06:42:39.675Z,36.67
2023-04-21T06:45:07.988Z,36.34
2023-04-21T06:47:36.481Z,36.11
2023-04-21T06:50:03.684Z,36.22
2023-04-21T06:52:30.734Z,35.93
2023-04-21T06:54:58.026Z,35.62
2023-04-21T06:57:25.058Z,35.38
2023-04-21T06:59:52.495Z,35.38
2023-04-21T07:02:19.564Z,35.70
2023-04-21T07:04:48.494Z,35.86
2023-04-21T07:07:15.617Z,35.60
2023-04-21T07:09:42.931Z,35.48
2023-04-21T07:12:09.995Z,34.94
2023-04-21T07:14:37.681Z,35.40
2023-04-21T07:17:05.481Z,34.38
2023-04-21T07:19:32.912Z,34.89
2023-04-21T07:22:01.603Z,35.53
2023-04-21T07:24:29.089Z,35.34
2023-04-21T07:26:56.060Z,34.85
2023-04-21T07:29:23.399Z,33.19
2023-04-21T07:31:51.847Z,33.62
2023-04-21T07:34:19.368Z,33.79
2023-04-21T07:36:46.359Z,33.56
2023-04-21T07:39:15.142Z,32.74
2023-04-21T07:41:42.424Z,33.31
2023-04-21T07:44:09.837Z,33.15
2023-04-21T07:46:36.967Z,32.75
2023-04-21T07:49:04.460Z,32.25
2023-04-21T07:51:32.052Z,32.37
2023-04-21T07:53:59.774Z,32.54
2023-04-21T07:56:28.738Z,32.59
2023-04-21T07:58:55.948Z,32.29
2023-04-21T08:01:23.824Z,32.57
2023-04-21T08:03:51.513Z,33.19
2023-04-21T08:06:18.692Z,33.23
2023-04-21T08:08:46.052Z,31.73
2023-04-21T08:11:13.139Z,31.53
2023-04-21T08:13:41.819Z,31.38
2023-04-21T08:16:08.924Z,31.84
2023-04-21T08:18:36.645Z,30.13
2023-04-21T08:21:03.916Z,30.63
2023-04-21T08:23:32.496Z,30.70
2023-04-21T08:26:01.918Z,30.93
2023-04-21T08:28:29.349Z,30.08
2023-04-21T08:30:57.758Z,28.64
2023-04-21T08:33:24.891Z,29.35
2023-04-21T08:36:03.858Z,28.34
2023-04-21T08:38:33.268Z,29.10
2023-04-21T08:41:00.830Z,29.25
2023-04-21T08:43:29.217Z,29.76
2023-04-21T08:45:58.625Z,30.60
2023-04-21T08:48:27.949Z,30.83
2023-04-21T08:50:55.192Z,30.87
2023-04-21T08:53:23.193Z,30.85
2023-04-21T08:56:07.551Z,30.88
2023-04-21T08:58:37.860Z,31.10
2023-04-21T09:01:06.432Z,30.70
2023-04-21T09:03:34.413Z,30.92
2023-04-21T09:06:03.565Z,31.65
2023-04-21T09:08:32.507Z,32.02
2023-04-21T09:11:01.321Z,32.37
2023-04-21T09:13:32.803Z,32.30
2023-04-21T09:16:01.269Z,32.84
2023-04-21T09:18:40.312Z,33.26
2023-04-21T09:21:10.627Z,33.58
2023-04-21T09:23:45.680Z,33.72
2023-04-21T09:26:13.429Z,33.94
2023-04-21T09:28:44.752Z,33.54
2023-04-21T09:31:15.636Z,32.99
2023-04-21T09:33:57.052Z,33.34
2023-04-21T09:36:28.056Z,33.90
2023-04-21T09:39:20.686Z,34.28
2023-04-21T09:41:46.019Z,33.78
2023-04-21T09:44:13.368Z,32.81
2023-04-21T09:46:43.889Z,32.71
2023-04-21T09:49:16.917Z,32.23
2023-04-21T09:54:29.254Z,33.58
2023-04-21T09:57:01.744Z,32.94
2023-04-21T09:59:32.725Z,33.35
2023-04-21T10:02:01.249Z,33.34
2023-04-21T10:04:32.619Z,33.38
2023-04-21T10:07:00.437Z,32.59
2023-04-21T10:09:35.653Z,33.05
2023-04-21T10:12:06.945Z,32.27
2023-04-21T10:14:36.273Z,31.63
2023-04-21T10:17:05.852Z,31.07
2023-04-21T10:19:39.804Z,31.08
2023-04-21T10:22:08.813Z,30.42
2023-04-21T10:24:39.023Z,31.02
2023-04-21T10:27:06.134Z,30.15
2023-04-21T10:29:48.030Z,30.49
2023-04-21T10:32:39.293Z,29.30
2023-04-21T10:35:13.127Z,30.04
2023-04-21T10:37:41.738Z,30.28
2023-04-21T10:40:43.792Z,29.71
2023-04-21T10:43:49.639Z,29.58
2023-04-21T10:46:36.609Z,30.32
2023-04-21T10:49:08.522Z,29.08
2023-04-21T10:52:05.307Z,28.98
2023-04-21T10:54:38.045Z,30.05
2023-04-21T10:57:11.703Z,29.63
2023-04-21T10:59:39.557Z,29.67
2023-04-21T11:02:07.918Z,28.51
2023-04-21T11:04:35.421Z,29.04
2023-04-21T11:07:08.912Z,29.08
2023-04-21T11:09:37.444Z,29.66
2023-04-21T11:12:07.493Z,30.33
2023-04-21T11:14:36.637Z,30.51
2023-04-21T11:17:05.850Z,30.76
2023-04-21T11:19:33.007Z,30.07
2023-04-21T11:22:00.536Z,29.71
2023-04-21T11:24:28.979Z,30.01
2023-04-21T11:26:56.827Z,30.57
2023-04-21T11:29:24.019Z,31.06
2023-04-21T11:31:51.350Z,31.10
2023-04-21T11:34:21.486Z,30.58
2023-04-21T11:36:49.476Z,30.53
2023-04-21T11:39:21.984Z,30.26
2023-04-21T11:41:52.114Z,30.51
2023-04-21T11:44:32.235Z,30.31
2023-04-21T11:46:59.685Z,30.96
2023-04-21T11:49:30.734Z,30.92
2023-04-21T11:51:58.159Z,30.11
2023-04-21T11:54:25.200Z,30.33
2023-04-21T11:56:54.647Z,30.50
2023-04-21T11:59:25.763Z,30.30
2023-04-21T12:01:54.674Z,30.73
2023-04-21T12:04:22.676Z,30.75
2023-04-21T12:06:56.550Z,30.76
2023-04-21T12:09:23.390Z,30.87
2023-04-21T12:11:51.630Z,30.82
2023-04-21T12:14:20.567Z,30.52
2023-04-21T12:16:48.878Z,30.79
2023-04-21T12:19:22.268Z,30.89
2023-04-21T12:21:52.747Z,29.94
2023-04-21T12:24:19.498Z,30.55
2023-04-21T12:26:47.302Z,30.48
2023-04-21T12:29:14.678Z,30.48
2023-04-21T12:31:43.433Z,29.99
2023-04-21T12:34:10.599Z,30.24
2023-04-21T12:36:38.695Z,29.99
2023-04-21T12:39:06.417Z,30.35
2023-04-21T12:41:34.691Z,30.59
2023-04-21T12:44:01.623Z,30.35
2023-04-21T12:46:28.786Z,30.34
2023-04-21T12:48:57.040Z,30.01
2023-04-21T12:51:24.162Z,30.08
2023-04-21T12:53:51.141Z,30.22
2023-04-21T12:56:18.519Z,30.34
2023-04-21T12:58:45.451Z,30.25
2023-04-21T13:01:14.832Z,30.02
2023-04-21T13:03:41.892Z,29.95
2023-04-21T13:06:10.989Z,30.24
2023-04-21T13:08:37.775Z,30.25
2023-04-21T13:11:05.393Z,30.57
2023-04-21T13:13:32.664Z,30.36
2023-04-21T13:15:59.976Z,30.26
2023-04-21T13:18:27.136Z,30.26
2023-04-21T13:20:54.258Z,29.84
2023-04-21T13:23:22.332Z,29.98
2023-04-21T13:25:50.902Z,29.29
2023-04-21T13:28:18.104Z,29.29
2023-04-21T13:30:45.854Z,29.11
2023-04-21T13:33:13.121Z,29.40
2023-04-21T13:35:40.329Z,29.45
2023-04-21T13:38:07.190Z,29.17
2023-04-21T13:40:35.819Z,29.27
2023-04-21T13:43:03.071Z,29.33
2023-04-21T13:45:30.525Z,29.37
2023-04-21T13:47:58.688Z,29.70
2023-04-21T13:50:25.837Z,29.68
2023-04-21T13:52:52.781Z,29.40
2023-04-21T13:55:21.004Z,29.96
2023-04-21T13:57:49.208Z,29.60
2023-04-21T14:00:17.025Z,29.33
2023-04-21T14:02:44.141Z,29.77
2023-04-21T14:05:11.588Z,30.31
2023-04-21T14:07:38.696Z,30.23
2023-04-21T14:10:06.472Z,29.57
2023-04-21T14:12:33.206Z,29.50
2023-04-21T14:15:01.805Z,29.63
2023-04-21T14:17:28.717Z,30.13
2023-04-21T14:19:55.864Z,30.12
2023-04-21T14:22:22.689Z,30.39
2023-04-21T14:24:49.860Z,30.09
2023-04-21T14:27:16.636Z,30.01
2023-04-21T14:29:43.855Z,30.51
2023-04-21T14:32:12.065Z,30.46
2023-04-21T14:34:39.070Z,30.18
2023-04-21T14:37:05.906Z,29.85
2023-04-21T14:39:33.168Z,29.97
2023-04-21T14:42:00.121Z,30.22
2023-04-21T14:44:27.181Z,29.95
2023-04-21T14:47:08.516Z,30.24
2023-04-21T14:49:39.350Z,30.43
2023-04-21T14:52:07.100Z,30.18
2023-04-21T14:54:34.215Z,30.28
2023-04-21T14:57:17.868Z,30.38
2023-04-21T14:59:46.966Z,30.27
2023-04-21T15:02:14.173Z,30.31
2023-04-21T15:04:42.957Z,30.30
2023-04-21T15:07:09.748Z,30.46
2023-04-21T15:09:37.189Z,30.60
2023-04-21T15:12:04.406Z,30.54
2023-04-21T15:14:31.869Z,30.44
2023-04-21T15:16:58.782Z,30.94
2023-04-21T15:19:26.021Z,30.81
2023-04-21T15:21:54.126Z,31.00
2023-04-21T15:24:21.526Z,30.76
2023-04-21T15:26:48.313Z,31.05
2023-04-21T15:29:15.527Z,31.14
2023-04-21T15:31:42.590Z,30.90
2023-04-21T15:34:09.913Z,31.22
2023-04-21T15:36:36.816Z,31.03
2023-04-21T15:39:05.254Z,31.14
2023-04-21T15:41:32.285Z,31.10
2023-04-21T15:44:00.167Z,30.92
2023-04-21T15:46:27.065Z,30.73
2023-04-21T15:48:54.522Z,30.89
2023-04-21T15:51:21.237Z,30.87
2023-04-21T15:53:48.739Z,30.97
2023-04-21T15:56:17.086Z,31.28
2023-04-21T15:58:44.492Z,31.23
2023-04-21T16:01:11.521Z,30.78
2023-04-21T16:03:40.292Z,30.95
2023-04-21T16:06:07.843Z,31.24
2023-04-21T16:08:34.946Z,31.06
2023-04-21T16:11:01.818Z,31.00
2023-04-21T16:13:30.260Z,30.92
2023-04-21T16:15:57.332Z,30.99
2023-04-21T16:18:24.694Z,31.19
2023-04-21T16:20:52.370Z,30.54
2023-04-21T16:23:19.675Z,30.48
2023-04-21T16:25:46.850Z,30.59
2023-04-21T16:28:18.727Z,30.41
2023-04-21T16:30:46.892Z,30.60
2023-04-21T16:33:14.681Z,30.65
2023-04-21T16:35:42.572Z,30.63
2023-04-21T16:38:09.727Z,31.19
2023-04-21T16:40:36.575Z,31.34
2023-04-21T16:43:04.117Z,31.53
2023-04-21T16:45:31.013Z,31.75
2023-04-21T16:47:59.692Z,31.87
2023-04-21T16:50:26.814Z,32.19
2023-04-21T16:52:53.968Z,32.46
2023-04-21T16:55:29.619Z,32.36
2023-04-21T16:57:56.710Z,32.30
2023-04-21T17:00:23.561Z,32.61
2023-04-21T17:02:50.826Z,32.74
2023-04-21T17:05:19.016Z,32.68
2023-04-21T17:07:46.112Z,32.82
2023-04-21T17:10:12.823Z,33.01
2023-04-21T17:12:40.120Z,32.97
2023-04-21T17:15:07.548Z,33.12
2023-04-21T17:17:40.085Z,33.49
2023-04-21T17:20:07.801Z,33.51
2023-04-21T17:22:36.922Z,33.58
2023-04-21T17:25:04.446Z,33.73
2023-04-21T17:27:31.956Z,33.95
2023-04-21T17:29:58.712Z,33.83
2023-04-21T17:32:26.027Z,34.03
2023-04-21T17:34:52.812Z,34.08
2023-04-21T17:37:19.850Z,34.19
2023-04-21T17:39:47.878Z,34.25
2023-04-21T17:42:14.781Z,34.41
2023-04-21T17:44:41.603Z,34.46
2023-04-21T17:47:09.044Z,34.53
2023-04-21T17:49:36.005Z,34.50
2023-04-21T17:52:03.144Z,34.58
2023-04-21T17:54:29.934Z,34.73
2023-04-21T17:56:58.343Z,34.80
2023-04-21T17:59:25.190Z,34.96
2023-04-21T18:01:52.257Z,35.05
2023-04-21T18:04:19.622Z,35.17
2023-04-21T18:06:46.605Z,35.18
2023-04-21T18:09:13.295Z,35.15
2023-04-21T18:11:40.410Z,35.28
2023-04-21T18:14:09.048Z,35.30
2023-04-21T18:16:36.297Z,35.43
2023-04-21T18:19:03.276Z,35.54
2023-04-21T18:21:31.788Z,35.58
2023-04-21T18:23:58.827Z,35.53
2023-04-21T18:26:26.665Z,35.70
2023-04-21T18:28:53.509Z,35.79
2023-04-21T18:31:25.890Z,35.76
2023-04-21T18:33:53.419Z,35.75
2023-04-21T18:36:21.400Z,35.89
2023-04-21T18:38:48.099Z,35.92
2023-04-21T18:41:15.171Z,35.63
2023-04-21T18:43:42.329Z,35.76
2023-04-21T18:46:09.438Z,35.46
2023-04-21T18:48:37.508Z,35.45
2023-04-21T18:51:04.840Z,35.50
2023-04-21T18:53:31.667Z,35.64
2023-04-21T18:55:59.078Z,35.66
2023-04-21T18:58:26.066Z,35.91
2023-04-21T19:00:53.186Z,35.97
2023-04-21T19:03:20.560Z,36.16
2023-04-21T19:05:49.123Z,36.09
2023-04-21T19:10:44.805Z,36.44
2023-04-21T19:13:11.914Z,36.48
2023-04-21T19:15:39.024Z,36.63
2023-04-21T19:18:06.713Z,36.75
2023-04-21T19:20:35.822Z,37.11
2023-04-21T19:23:04.161Z,37.75
2023-04-21T19:25:31.264Z,37.92
2023-04-21T19:28:01.080Z,38.80
2023-04-21T19:30:28.108Z,39.09
2023-04-21T19:32:55.591Z,39.11
2023-04-21T19:35:23.094Z,39.86
2023-04-21T19:37:49.726Z,39.92
2023-04-21T19:40:18.841Z,39.83
2023-04-21T19:42:45.559Z,39.89
2023-04-21T19:45:13.095Z,39.74
2023-04-21T19:47:39.871Z,39.87
2023-04-21T19:50:08.331Z,39.99
2023-04-21T19:52:35.568Z,39.93
2023-04-21T19:55:03.549Z,39.85
2023-04-21T19:57:31.828Z,39.89
2023-04-21T19:59:58.778Z,40.05
2023-04-21T20:02:26.727Z,40.26
2023-04-21T20:04:54.251Z,40.15
2023-04-21T20:07:21.432Z,40.24
2023-04-21T20:09:48.379Z,40.30
2023-04-21T20:12:15.360Z,40.12
2023-04-21T20:14:43.939Z,40.02
2023-04-21T20:17:11.201Z,40.26
2023-04-21T20:19:40.417Z,40.28
2023-04-21T20:22:08.159Z,40.40
2023-04-21T20:24:35.542Z,40.02
2023-04-21T20:27:02.482Z,40.21
2023-04-21T20:29:29.596Z,40.25
2023-04-21T20:31:57.812Z,40.18
2023-04-21T20:34:25.065Z,40.46
2023-04-21T20:36:54.513Z,40.52
2023-04-21T20:39:21.683Z,40.36
2023-04-21T20:41:57.986Z,40.56
2023-04-21T20:44:32.384Z,40.61
2023-04-21T20:47:01.589Z,40.65
2023-04-21T20:49:28.892Z,40.73
2023-04-21T20:51:56.140Z,41.09
2023-04-21T20:54:23.383Z,41.51
2023-04-21T20:56:50.360Z,41.83
2023-04-21T20:59:18.619Z,41.71
2023-04-21T21:01:45.625Z,41.76
2023-04-21T21:04:14.454Z,41.75
2023-04-21T21:06:41.340Z,41.73
2023-04-21T21:09:10.035Z,42.36
2023-04-21T21:11:36.823Z,42.38
2023-04-21T21:14:03.967Z,42.48
2023-04-21T21:16:30.866Z,42.50
2023-04-21T21:18:57.993Z,42.64
2023-04-21T21:21:26.951Z,42.66
2023-04-21T21:23:54.218Z,42.39
2023-04-21T21:26:21.168Z,42.62
2023-04-21T21:28:49.256Z,42.79
2023-04-21T21:31:16.081Z,42.91
2023-04-21T21:33:43.117Z,42.97
2023-04-21T21:36:09.794Z,42.75
2023-04-21T21:38:38.293Z,42.74
2023-04-21T21:41:05.773Z,42.96
2023-04-21T21:43:33.264Z,42.91
2023-04-21T21:46:00.043Z,42.82
2023-04-21T21:48:27.191Z,42.92
2023-04-21T21:50:53.979Z,42.67
2023-04-21T21:53:20.942Z,42.71
2023-04-21T21:55:48.957Z,42.63
2023-04-21T21:58:16.357Z,42.75
2023-04-21T22:00:43.108Z,42.74
2023-04-21T22:03:11.073Z,42.77
2023-04-21T22:05:38.021Z,42.68
2023-04-21T22:08:05.184Z,42.62
2023-04-21T22:10:31.997Z,42.46
2023-04-21T22:13:00.787Z,42.51
2023-04-21T22:15:27.634Z,42.76
2023-04-21T22:17:54.747Z,42.67
2023-04-21T22:20:22.695Z,42.74
2023-04-21T22:22:50.067Z,43.18
2023-04-21T22:25:16.947Z,42.87
2023-04-21T22:27:44.144Z,42.93
2023-04-21T22:30:12.614Z,42.73
2023-04-21T22:32:39.707Z,42.82
2023-04-21T22:35:06.665Z,42.89
2023-04-21T22:37:33.694Z,42.60
2023-04-21T22:40:00.832Z,42.71
2023-04-21T22:42:28.073Z,42.48
2023-04-21T22:44:55.107Z,42.36
2023-04-21T22:47:23.818Z,42.30
2023-04-21T22:49:51.387Z,42.46
2023-04-21T22:52:18.405Z,42.37
2023-04-21T22:54:45.089Z,42.29
2023-04-21T22:57:12.086Z,42.04
2023-04-21T22:59:39.043Z,42.09
2023-04-21T23:02:06.593Z,42.22
2023-04-21T23:04:35.510Z,42.27
2023-04-21T23:07:03.237Z,42.16
2023-04-21T23:09:30.151Z,42.15
2023-04-21T23:11:57.149Z,42.10
2023-04-21T23:14:24.015Z,42.09
2023-04-21T23:16:51.137Z,42.22
2023-04-21T23:19:18.041Z,42.31
2023-04-21T23:21:46.565Z,42.17
2023-04-21T23:24:13.540Z,42.13
2023-04-21T23:26:41.165Z,42.14
2023-04-21T23:29:07.934Z,42.29
2023-04-21T23:31:34.910Z,42.19
2023-04-21T23:34:01.663Z,42.15
2023-04-21T23:36:28.713Z,42.28
2023-04-21T23:38:56.862Z,42.72
2023-04-21T23:41:23.967Z,42.51
2023-04-21T23:43:50.732Z,42.82
2023-04-21T23:46:17.816Z,43.34
2023-04-21T23:48:44.718Z,43.47
2023-04-21T23:51:12.130Z,43.94
2023-04-21T23:53:39.228Z,44.03
2023-04-21T23:56:07.884Z,44.41
2023-04-21T23:58:34.743Z,44.50
